createdAt,value
2017-05-01T00:00:56.082Z,0
2017-05-01T00:02:06.210Z,0
2017-05-01T00:03:16.652Z,0
2017-05-01T00:04:26.752Z,0
2017-05-01T00:05:36.883Z,0
2017-05-01T00:06:47.006Z,0
2017-05-01T00:07:57.102Z,0
2017-05-01T00:09:06.788Z,0
2017-05-01T00:10:16.877Z,0
2017-05-01T00:11:26.988Z,0
2017-05-01T00:12:37.112Z,0
2017-05-01T00:13:47.210Z,0
2017-05-01T00:14:57.697Z,0
2017-05-01T00:16:07.859Z,0
2017-05-01T00:17:17.956Z,0
2017-05-01T00:18:28.134Z,0
2017-05-01T00:19:37.893Z,0
2017-05-01T00:20:47.964Z,0
2017-05-01T00:21:58.071Z,0
2017-05-01T00:23:08.218Z,0
2017-05-01T00:24:18.373Z,0
2017-05-01T00:25:28.477Z,0
2017-05-01T00:26:38.955Z,0
2017-05-01T00:27:49.096Z,0
2017-05-01T00:28:58.556Z,0
2017-05-01T00:30:08.684Z,0
2017-05-01T00:31:18.800Z,0
2017-05-01T00:32:29.279Z,0
2017-05-01T00:33:39.469Z,0
2017-05-01T00:34:49.574Z,0
2017-05-01T00:35:59.386Z,0
2017-05-01T00:37:09.538Z,0
2017-05-01T00:38:19.985Z,0
2017-05-01T00:39:30.153Z,0
2017-05-01T00:40:40.243Z,0
2017-05-01T00:41:50.141Z,0
2017-05-01T00:42:59.677Z,0
2017-05-01T00:44:10.196Z,0
2017-05-01T00:45:19.968Z,0
2017-05-01T00:46:30.061Z,0
2017-05-01T00:47:40.156Z,0
2017-05-01T00:48:50.252Z,0
2017-05-01T00:50:00.288Z,0
2017-05-01T00:51:10.397Z,0
2017-05-01T00:52:20.174Z,0
2017-05-01T00:53:30.314Z,0
2017-05-01T00:54:40.410Z,0
2017-05-01T00:55:50.806Z,0
2017-05-01T00:57:00.338Z,0
2017-05-01T00:58:10.434Z,0
2017-05-01T00:59:20.215Z,0
2017-05-01T01:00:30.322Z,0
2017-05-01T01:01:40.762Z,0
2017-05-01T01:02:50.911Z,0
2017-05-01T01:04:00.712Z,0
2017-05-01T01:05:10.802Z,0
2017-05-01T01:06:20.896Z,0
2017-05-01T01:07:31.304Z,0
2017-05-01T01:08:41.405Z,0
2017-05-01T01:09:51.654Z,0
2017-05-01T01:11:01.960Z,0
2017-05-01T01:12:12.065Z,0
2017-05-01T01:13:22.420Z,0
2017-05-01T01:14:32.539Z,0
2017-05-01T01:15:42.628Z,0
2017-05-01T01:16:52.857Z,0
2017-05-01T01:18:02.631Z,0
2017-05-01T01:19:12.989Z,0
2017-05-01T01:20:23.117Z,0
2017-05-01T01:21:32.935Z,0
2017-05-01T01:22:43.108Z,0
2017-05-01T01:23:53.219Z,0
2017-05-01T01:25:03.660Z,0
2017-05-01T01:26:13.764Z,0
2017-05-01T01:27:23.857Z,0
2017-05-01T01:28:33.664Z,0
2017-05-01T01:29:43.766Z,0
2017-05-01T01:30:54.382Z,0
2017-05-01T01:32:04.525Z,0
2017-05-01T01:33:14.635Z,0
2017-05-01T01:34:24.737Z,0
2017-05-01T01:35:35.037Z,0
2017-05-01T01:36:45.490Z,0
2017-05-01T01:37:55.647Z,0
2017-05-01T01:39:05.943Z,0
2017-05-01T01:40:16.049Z,0
2017-05-01T01:41:26.194Z,0
2017-05-01T01:42:36.611Z,0
2017-05-01T01:43:46.705Z,0
2017-05-01T01:44:56.851Z,0
2017-05-01T01:46:06.976Z,0
2017-05-01T01:47:16.750Z,0
2017-05-01T01:48:27.187Z,0
2017-05-01T01:49:37.294Z,0
2017-05-01T01:50:47.062Z,0
2017-05-01T01:51:57.210Z,0
2017-05-01T01:53:07.348Z,0
2017-05-01T01:54:17.757Z,0
2017-05-01T01:55:27.851Z,0
2017-05-01T01:56:38.026Z,0
2017-05-01T01:57:48.114Z,0
2017-05-01T01:58:58.229Z,0
2017-05-01T02:00:08.709Z,0
2017-05-01T02:01:18.960Z,0
2017-05-01T02:02:29.100Z,0
2017-05-01T02:03:39.342Z,0
2017-05-01T02:04:49.475Z,0
2017-05-01T02:05:59.883Z,0
2017-05-01T02:07:10.029Z,0
2017-05-01T02:08:20.196Z,0
2017-05-01T02:09:30.363Z,0
2017-05-01T02:10:40.584Z,0
2017-05-01T02:11:51.013Z,0
2017-05-01T02:13:01.129Z,0
2017-05-01T02:14:11.267Z,0
2017-05-01T02:15:21.371Z,0
2017-05-01T02:16:31.521Z,0
2017-05-01T02:17:41.917Z,0
2017-05-01T02:18:52.060Z,0
2017-05-01T02:20:02.315Z,0
2017-05-01T02:21:12.404Z,0
2017-05-01T02:22:22.525Z,0
2017-05-01T02:23:32.953Z,0
2017-05-01T02:24:42.781Z,0
2017-05-01T02:25:52.921Z,0
2017-05-01T02:27:03.015Z,0
2017-05-01T02:28:13.121Z,0
2017-05-01T02:29:23.558Z,0
2017-05-01T02:30:33.639Z,0
2017-05-01T02:31:43.791Z,0
2017-05-01T02:32:53.878Z,0
2017-05-01T02:34:04.015Z,0
2017-05-01T02:35:14.407Z,0
2017-05-01T02:36:24.541Z,0
2017-05-01T02:37:34.654Z,0
2017-05-01T02:38:44.566Z,0
2017-05-01T02:39:54.671Z,0
2017-05-01T02:41:05.177Z,0
2017-05-01T02:42:14.977Z,0
2017-05-01T02:43:25.083Z,0
2017-05-01T02:44:35.176Z,0
2017-05-01T02:45:45.274Z,0
2017-05-01T02:46:55.718Z,0
2017-05-01T02:48:05.811Z,0
2017-05-01T02:49:15.918Z,0
2017-05-01T02:50:26.006Z,0
2017-05-01T02:51:36.117Z,0
2017-05-01T02:52:46.536Z,0
2017-05-01T02:53:56.713Z,0
2017-05-01T02:55:06.941Z,0
2017-05-01T02:56:17.045Z,0
2017-05-01T02:57:27.169Z,0
2017-05-01T02:58:37.602Z,0
2017-05-01T02:59:47.712Z,0
2017-05-01T03:00:57.805Z,0
2017-05-01T03:02:07.991Z,0
2017-05-01T03:03:17.879Z,0
2017-05-01T03:04:28.313Z,0
2017-05-01T03:05:38.059Z,0
2017-05-01T03:06:48.239Z,0
2017-05-01T03:07:58.529Z,0
2017-05-01T03:09:08.637Z,0
2017-05-01T03:10:19.027Z,0
2017-05-01T03:11:29.191Z,0
2017-05-01T03:12:39.399Z,0
2017-05-01T03:13:49.501Z,0
2017-05-01T03:14:59.676Z,0
2017-05-01T03:16:10.024Z,0
2017-05-01T03:17:20.189Z,0
2017-05-01T03:18:29.946Z,0
2017-05-01T03:19:40.167Z,0
2017-05-01T03:20:50.255Z,0
2017-05-01T03:22:00.355Z,0
2017-05-01T03:23:10.513Z,0
2017-05-01T03:24:20.615Z,0
2017-05-01T03:25:30.707Z,0
2017-05-01T03:26:40.880Z,0
2017-05-01T03:27:51.276Z,0
2017-05-01T03:29:01.445Z,0
2017-05-01T03:30:11.233Z,0
2017-05-01T03:31:21.021Z,0
2017-05-01T03:32:31.130Z,5
2017-05-01T03:33:41.523Z,5
2017-05-01T03:34:51.657Z,5
2017-05-01T03:36:01.782Z,5
2017-05-01T03:37:11.864Z,5
2017-05-01T03:38:21.969Z,5
2017-05-01T03:39:32.571Z,10
2017-05-01T03:40:42.469Z,10
2017-05-01T03:41:52.274Z,10
2017-05-01T03:43:02.401Z,10
2017-05-01T03:44:12.177Z,10
2017-05-01T03:45:22.270Z,15
2017-05-01T03:46:32.531Z,15
2017-05-01T03:47:42.628Z,15
2017-05-01T03:48:52.719Z,15
2017-05-01T03:50:02.821Z,20
2017-05-01T03:51:13.230Z,20
2017-05-01T03:52:23.347Z,25
2017-05-01T03:53:33.458Z,25
2017-05-01T03:54:43.560Z,30
2017-05-01T03:55:53.705Z,30
2017-05-01T03:57:04.141Z,35
2017-05-01T03:58:14.237Z,35
2017-05-01T03:59:24.105Z,40
2017-05-01T04:00:34.413Z,40
2017-05-01T04:01:44.607Z,40
2017-05-01T04:02:55.013Z,45
2017-05-01T04:04:05.109Z,45
2017-05-01T04:05:15.255Z,50
2017-05-01T04:06:25.433Z,50
2017-05-01T04:07:35.589Z,55
2017-05-01T04:08:46.016Z,55
2017-05-01T04:09:56.106Z,60
2017-05-01T04:11:06.263Z,60
2017-05-01T04:12:16.454Z,65
2017-05-01T04:13:26.546Z,65
2017-05-01T04:14:36.690Z,70
2017-05-01T04:15:46.792Z,70
2017-05-01T04:16:56.989Z,75
2017-05-01T04:18:06.772Z,75
2017-05-01T04:19:16.899Z,75
2017-05-01T04:20:26.972Z,80
2017-05-01T04:21:37.092Z,80
2017-05-01T04:22:47.297Z,85
2017-05-01T04:23:57.442Z,90
2017-05-01T04:25:07.545Z,95
2017-05-01T04:26:17.973Z,95
2017-05-01T04:27:28.082Z,100
2017-05-01T04:28:38.209Z,105
2017-05-01T04:29:48.491Z,110
2017-05-01T04:30:58.580Z,110
2017-05-01T04:32:08.994Z,115
2017-05-01T04:33:19.099Z,120
2017-05-01T04:34:29.196Z,125
2017-05-01T04:35:39.348Z,125
2017-05-01T04:36:49.496Z,130
2017-05-01T04:37:59.954Z,135
2017-05-01T04:39:10.056Z,130
2017-05-01T04:40:20.173Z,135
2017-05-01T04:41:30.285Z,140
2017-05-01T04:42:40.508Z,140
2017-05-01T04:43:50.900Z,140
2017-05-01T04:45:01.023Z,145
2017-05-01T04:46:11.139Z,150
2017-05-01T04:47:21.355Z,150
2017-05-01T04:48:31.502Z,150
2017-05-01T04:49:41.924Z,155
2017-05-01T04:50:52.049Z,160
2017-05-01T04:52:02.180Z,160
2017-05-01T04:53:11.966Z,165
2017-05-01T04:54:22.178Z,170
2017-05-01T04:55:32.527Z,170
2017-05-01T04:56:42.623Z,175
2017-05-01T04:57:52.921Z,180
2017-05-01T04:59:03.018Z,180
2017-05-01T05:00:13.114Z,180
2017-05-01T05:01:23.583Z,185
2017-05-01T05:02:33.712Z,180
2017-05-01T05:03:43.929Z,180
2017-05-01T05:04:54.100Z,190
2017-05-01T05:06:04.227Z,190
2017-05-01T05:07:14.615Z,195
2017-05-01T05:08:24.707Z,195
2017-05-01T05:09:34.839Z,195
2017-05-01T05:10:44.926Z,200
2017-05-01T05:11:55.031Z,200
2017-05-01T05:13:05.090Z,200
2017-05-01T05:14:15.266Z,205
2017-05-01T05:15:25.082Z,210
2017-05-01T05:16:34.892Z,210
2017-05-01T05:17:45.056Z,215
2017-05-01T05:18:55.678Z,215
2017-05-01T05:20:05.777Z,220
2017-05-01T05:21:16.031Z,220
2017-05-01T05:22:26.214Z,225
2017-05-01T05:23:36.354Z,225
2017-05-01T05:24:46.785Z,225
2017-05-01T05:25:56.960Z,230
2017-05-01T05:27:07.157Z,230
2017-05-01T05:28:17.341Z,230
2017-05-01T05:29:27.110Z,235
2017-05-01T05:30:37.531Z,235
2017-05-01T05:31:47.368Z,240
2017-05-01T05:32:57.474Z,245
2017-05-01T05:34:07.582Z,245
2017-05-01T05:35:17.671Z,250
2017-05-01T05:36:28.098Z,255
2017-05-01T05:37:38.240Z,260
2017-05-01T05:38:48.349Z,260
2017-05-01T05:39:58.608Z,260
2017-05-01T05:41:08.108Z,265
2017-05-01T05:42:18.536Z,265
2017-05-01T05:43:28.625Z,270
2017-05-01T05:44:38.718Z,275
2017-05-01T05:45:48.813Z,275
2017-05-01T05:46:58.960Z,280
2017-05-01T05:48:09.356Z,280
2017-05-01T05:49:19.115Z,285
2017-05-01T05:50:29.244Z,290
2017-05-01T05:51:39.394Z,290
2017-05-01T05:52:49.544Z,295
2017-05-01T05:53:59.934Z,300
2017-05-01T05:55:10.051Z,300
2017-05-01T05:56:20.144Z,305
2017-05-01T05:57:30.302Z,310
2017-05-01T05:58:40.407Z,315
2017-05-01T05:59:50.785Z,310
2017-05-01T06:01:00.566Z,315
2017-05-01T06:02:10.652Z,320
2017-05-01T06:03:20.412Z,320
2017-05-01T06:04:30.512Z,320
2017-05-01T06:05:40.869Z,320
2017-05-01T06:06:51.051Z,315
2017-05-01T06:08:01.219Z,320
2017-05-01T06:09:11.418Z,320
2017-05-01T06:10:21.568Z,320
2017-05-01T06:11:31.920Z,320
2017-05-01T06:12:42.045Z,325
2017-05-01T06:13:51.822Z,330
2017-05-01T06:15:01.918Z,335
2017-05-01T06:16:12.010Z,340
2017-05-01T06:17:22.435Z,345
2017-05-01T06:18:32.200Z,350
2017-05-01T06:19:42.336Z,350
2017-05-01T06:20:52.498Z,355
2017-05-01T06:22:02.607Z,360
2017-05-01T06:23:12.951Z,360
2017-05-01T06:24:23.124Z,360
2017-05-01T06:25:33.226Z,370
2017-05-01T06:26:42.987Z,375
2017-05-01T06:27:53.082Z,380
2017-05-01T06:29:03.534Z,385
2017-05-01T06:30:13.631Z,390
2017-05-01T06:31:24.011Z,395
2017-05-01T06:32:34.114Z,395
2017-05-01T06:33:44.370Z,395
2017-05-01T06:34:54.831Z,400
2017-05-01T06:36:04.923Z,400
2017-05-01T06:37:15.024Z,395
2017-05-01T06:38:25.137Z,390
2017-05-01T06:39:35.338Z,390
2017-05-01T06:40:45.486Z,405
2017-05-01T06:41:55.645Z,410
2017-05-01T06:43:05.887Z,415
2017-05-01T06:44:15.971Z,420
2017-05-01T06:45:26.079Z,430
2017-05-01T06:46:36.539Z,435
2017-05-01T06:47:46.359Z,445
2017-05-01T06:48:56.134Z,450
2017-05-01T06:50:06.373Z,450
2017-05-01T06:51:16.468Z,450
2017-05-01T06:52:26.860Z,450
2017-05-01T06:53:36.954Z,455
2017-05-01T06:54:47.126Z,455
2017-05-01T06:55:57.235Z,455
2017-05-01T06:57:07.407Z,450
2017-05-01T06:58:17.812Z,460
2017-05-01T06:59:27.905Z,475
2017-05-01T07:00:38.010Z,485
2017-05-01T07:01:48.105Z,495
2017-05-01T07:02:58.231Z,505
2017-05-01T07:04:08.266Z,505
2017-05-01T07:05:18.619Z,510
2017-05-01T07:06:28.727Z,505
2017-05-01T07:07:38.822Z,505
2017-05-01T07:08:48.929Z,505
2017-05-01T07:09:58.956Z,510
2017-05-01T07:11:09.083Z,505
2017-05-01T07:12:19.181Z,515
2017-05-01T07:13:29.351Z,505
2017-05-01T07:14:39.455Z,510
2017-05-01T07:15:49.523Z,505
2017-05-01T07:16:58.958Z,495
2017-05-01T07:18:09.094Z,495
2017-05-01T07:19:19.202Z,495
2017-05-01T07:20:29.323Z,500
2017-05-01T07:21:39.760Z,505
2017-05-01T07:22:49.880Z,500
2017-05-01T07:23:59.972Z,510
2017-05-01T07:25:10.077Z,520
2017-05-01T07:26:20.250Z,515
2017-05-01T07:27:30.707Z,510
2017-05-01T07:28:40.869Z,515
2017-05-01T07:29:51.258Z,520
2017-05-01T07:31:01.435Z,530
2017-05-01T07:32:11.528Z,530
2017-05-01T07:33:21.997Z,525
2017-05-01T07:34:32.112Z,520
2017-05-01T07:35:42.269Z,520
2017-05-01T07:36:52.446Z,530
2017-05-01T07:38:02.566Z,545
2017-05-01T07:39:12.972Z,555
2017-05-01T07:40:22.888Z,555
2017-05-01T07:41:33.033Z,560
2017-05-01T07:42:43.178Z,570
2017-05-01T07:43:53.295Z,580
2017-05-01T07:45:03.795Z,580
2017-05-01T07:46:13.922Z,580
2017-05-01T07:47:24.029Z,580
2017-05-01T07:48:34.125Z,575
2017-05-01T07:49:44.277Z,575
2017-05-01T07:50:54.661Z,600
2017-05-01T07:52:04.828Z,615
2017-05-01T07:53:14.933Z,640
2017-05-01T07:54:25.072Z,650
2017-05-01T07:55:35.211Z,650
2017-05-01T07:56:45.609Z,645
2017-05-01T07:57:55.706Z,645
2017-05-01T07:59:05.611Z,650
2017-05-01T08:00:15.771Z,650
2017-05-01T08:01:25.918Z,655
2017-05-01T08:02:36.591Z,665
2017-05-01T08:03:46.725Z,690
2017-05-01T08:04:56.819Z,715
2017-05-01T08:06:06.918Z,725
2017-05-01T08:07:16.677Z,730
2017-05-01T08:08:27.150Z,725
2017-05-01T08:09:37.422Z,735
2017-05-01T08:10:47.617Z,725
2017-05-01T08:11:57.728Z,740
2017-05-01T08:13:07.849Z,750
2017-05-01T08:14:17.880Z,750
2017-05-01T08:15:27.657Z,765
2017-05-01T08:16:37.414Z,780
2017-05-01T08:17:47.507Z,790
2017-05-01T08:18:57.706Z,805
2017-05-01T08:20:08.056Z,805
2017-05-01T08:21:18.937Z,845
2017-05-01T08:22:29.778Z,865
2017-05-01T08:23:40.664Z,885
2017-05-01T08:24:51.520Z,875
2017-05-01T08:26:02.319Z,890
2017-05-01T08:27:12.333Z,925
2017-05-01T08:28:23.142Z,930
2017-05-01T08:29:34.082Z,900
2017-05-01T08:30:44.879Z,930
2017-05-01T08:31:55.995Z,960
2017-05-01T08:33:06.840Z,985
2017-05-01T08:34:17.790Z,1105
2017-05-01T08:35:28.272Z,1750
2017-05-01T08:36:39.080Z,1865
2017-05-01T08:37:50.185Z,1935
2017-05-01T08:39:01.033Z,1995
2017-05-01T08:40:11.840Z,2105
2017-05-01T08:41:22.653Z,2015
2017-05-01T08:42:33.458Z,2410
2017-05-01T08:43:44.281Z,2340
2017-05-01T08:44:55.088Z,3060
2017-05-01T08:46:05.889Z,2910
2017-05-01T08:47:16.879Z,2905
2017-05-01T08:48:27.688Z,2380
2017-05-01T08:49:38.836Z,2470
2017-05-01T08:50:49.658Z,2585
2017-05-01T08:52:00.458Z,1670
2017-05-01T08:53:11.289Z,1480
2017-05-01T08:54:22.084Z,2790
2017-05-01T08:55:32.716Z,2805
2017-05-01T08:56:43.546Z,2580
2017-05-01T08:57:54.436Z,2635
2017-05-01T08:59:05.372Z,2305
2017-05-01T09:00:15.881Z,1425
2017-05-01T09:01:27.034Z,2375
2017-05-01T09:02:37.923Z,2100
2017-05-01T09:03:48.805Z,910
2017-05-01T09:04:59.681Z,2455
2017-05-01T09:06:10.501Z,2665
2017-05-01T09:07:21.611Z,2245
2017-05-01T09:08:32.502Z,2715
2017-05-01T09:09:43.420Z,2630
2017-05-01T09:10:54.302Z,2605
2017-05-01T09:12:05.155Z,2775
2017-05-01T09:13:16.261Z,2920
2017-05-01T09:14:26.905Z,900
2017-05-01T09:15:37.727Z,1120
2017-05-01T09:16:48.704Z,950
2017-05-01T09:17:59.524Z,3175
2017-05-01T09:19:10.658Z,3295
2017-05-01T09:20:21.465Z,2345
2017-05-01T09:21:32.288Z,3370
2017-05-01T09:22:43.142Z,990
2017-05-01T09:23:54.250Z,1405
2017-05-01T09:25:05.447Z,3730
2017-05-01T09:26:16.261Z,3425
2017-05-01T09:27:27.128Z,3290
2017-05-01T09:28:37.689Z,3100
2017-05-01T09:29:48.501Z,1620
2017-05-01T09:30:59.620Z,3395
2017-05-01T09:32:10.485Z,2570
2017-05-01T09:33:21.046Z,3395
2017-05-01T09:34:31.855Z,3240
2017-05-01T09:35:42.678Z,3030
2017-05-01T09:36:53.814Z,2860
2017-05-01T09:38:04.654Z,3010
2017-05-01T09:39:15.552Z,2925
2017-05-01T09:40:26.368Z,2940
2017-05-01T09:41:37.246Z,3440
2017-05-01T09:42:48.378Z,3800
2017-05-01T09:43:59.368Z,3855
2017-05-01T09:45:09.827Z,3540
2017-05-01T09:46:20.673Z,1205
2017-05-01T09:47:31.548Z,3655
2017-05-01T09:48:42.692Z,3525
2017-05-01T09:49:53.525Z,3450
2017-05-01T09:51:04.439Z,3660
2017-05-01T09:52:15.262Z,3645
2017-05-01T09:53:26.077Z,3635
2017-05-01T09:54:37.265Z,2795
2017-05-01T09:55:47.633Z,3840
2017-05-01T09:56:58.202Z,4070
2017-05-01T09:58:09.013Z,4055
2017-05-01T09:59:19.876Z,4055
2017-05-01T10:00:31.350Z,4080
2017-05-01T10:01:42.343Z,4260
2017-05-01T10:02:53.260Z,4110
2017-05-01T10:04:04.092Z,2845
2017-05-01T10:05:14.598Z,1220
2017-05-01T10:06:25.790Z,1355
2017-05-01T10:07:36.657Z,4330
2017-05-01T10:08:47.617Z,4515
2017-05-01T10:09:58.460Z,3515
2017-05-01T10:11:09.360Z,3760
2017-05-01T10:12:20.052Z,4480
2017-05-01T10:13:30.266Z,3625
2017-05-01T10:14:41.082Z,4300
2017-05-01T10:15:51.941Z,4620
2017-05-01T10:17:02.980Z,4660
2017-05-01T10:18:14.171Z,4210
2017-05-01T10:19:24.666Z,3825
2017-05-01T10:20:35.586Z,4630
2017-05-01T10:21:45.947Z,4580
2017-05-01T10:22:56.467Z,4675
2017-05-01T10:24:07.256Z,4660
2017-05-01T10:25:18.299Z,2280
2017-05-01T10:26:29.157Z,4515
2017-05-01T10:27:39.996Z,1560
2017-05-01T10:28:50.485Z,1595
2017-05-01T10:30:01.673Z,3285
2017-05-01T10:31:12.635Z,1705
2017-05-01T10:32:23.443Z,1290
2017-05-01T10:33:34.505Z,2775
2017-05-01T10:34:44.847Z,1170
2017-05-01T10:35:55.995Z,1110
2017-05-01T10:37:06.854Z,1365
2017-05-01T10:38:17.035Z,1465
2017-05-01T10:39:27.905Z,1585
2017-05-01T10:40:38.766Z,1105
2017-05-01T10:41:49.896Z,1425
2017-05-01T10:43:00.751Z,1085
2017-05-01T10:44:11.638Z,1125
2017-05-01T10:45:22.508Z,1030
2017-05-01T10:46:33.424Z,970
2017-05-01T10:47:44.592Z,820
2017-05-01T10:48:55.717Z,805
2017-05-01T10:50:06.607Z,735
2017-05-01T10:51:17.421Z,805
2017-05-01T10:52:28.230Z,1280
2017-05-01T10:53:39.364Z,2210
2017-05-01T10:54:50.233Z,2465
2017-05-01T10:56:01.065Z,1030
2017-05-01T10:57:11.879Z,985
2017-05-01T10:58:22.717Z,830
2017-05-01T10:59:32.867Z,770
2017-05-01T11:00:43.789Z,770
2017-05-01T11:01:54.696Z,805
2017-05-01T11:03:05.580Z,965
2017-05-01T11:04:16.449Z,1015
2017-05-01T11:05:27.566Z,1215
2017-05-01T11:06:38.054Z,1230
2017-05-01T11:07:48.885Z,970
2017-05-01T11:08:59.694Z,750
2017-05-01T11:10:10.497Z,715
2017-05-01T11:11:21.639Z,955
2017-05-01T11:12:32.146Z,995
2017-05-01T11:13:42.940Z,890
2017-05-01T11:14:53.744Z,935
2017-05-01T11:16:04.552Z,1360
2017-05-01T11:17:15.679Z,1315
2017-05-01T11:18:26.527Z,1225
2017-05-01T11:19:37.383Z,1175
2017-05-01T11:20:47.845Z,985
2017-05-01T11:21:58.684Z,1000
2017-05-01T11:23:09.603Z,985
2017-05-01T11:24:20.469Z,1060
2017-05-01T11:25:31.009Z,995
2017-05-01T11:26:41.905Z,1065
2017-05-01T11:27:52.690Z,2910
2017-05-01T11:29:03.980Z,950
2017-05-01T11:30:14.866Z,845
2017-05-01T11:31:25.768Z,905
2017-05-01T11:32:36.614Z,1000
2017-05-01T11:33:47.524Z,815
2017-05-01T11:34:58.287Z,645
2017-05-01T11:36:09.162Z,605
2017-05-01T11:37:20.198Z,640
2017-05-01T11:38:31.002Z,630
2017-05-01T11:39:41.805Z,700
2017-05-01T11:40:53.052Z,780
2017-05-01T11:42:03.530Z,865
2017-05-01T11:43:14.408Z,990
2017-05-01T11:44:25.239Z,1180
2017-05-01T11:45:36.046Z,1225
2017-05-01T11:46:47.249Z,1085
2017-05-01T11:47:58.039Z,3635
2017-05-01T11:49:08.865Z,1005
2017-05-01T11:50:19.829Z,790
2017-05-01T11:51:30.638Z,810
2017-05-01T11:52:41.846Z,1055
2017-05-01T11:53:52.334Z,1390
2017-05-01T11:55:02.803Z,3455
2017-05-01T11:56:13.659Z,955
2017-05-01T11:57:24.502Z,855
2017-05-01T11:58:35.613Z,905
2017-05-01T11:59:46.406Z,980
2017-05-01T12:00:57.289Z,1000
2017-05-01T12:02:08.139Z,950
2017-05-01T12:03:19.062Z,1070
2017-05-01T12:04:30.217Z,1115
2017-05-01T12:05:40.627Z,1120
2017-05-01T12:06:51.887Z,1075
2017-05-01T12:08:02.744Z,1085
2017-05-01T12:09:14.619Z,3170
2017-05-01T12:10:25.470Z,1270
2017-05-01T12:11:35.940Z,1195
2017-05-01T12:12:46.770Z,1430
2017-05-01T12:13:57.697Z,2835
2017-05-01T12:15:08.512Z,1105
2017-05-01T12:16:19.655Z,885
2017-05-01T12:17:30.467Z,775
2017-05-01T12:18:41.022Z,830
2017-05-01T12:19:51.840Z,900
2017-05-01T12:21:02.664Z,1170
2017-05-01T12:22:13.754Z,1525
2017-05-01T12:23:24.657Z,3570
2017-05-01T12:24:35.518Z,3705
2017-05-01T12:25:46.386Z,2100
2017-05-01T12:26:57.204Z,3370
2017-05-01T12:28:07.594Z,1665
2017-05-01T12:29:18.446Z,2605
2017-05-01T12:30:28.930Z,2115
2017-05-01T12:31:39.859Z,760
2017-05-01T12:32:50.785Z,660
2017-05-01T12:34:01.907Z,555
2017-05-01T12:35:12.769Z,445
2017-05-01T12:36:23.571Z,380
2017-05-01T12:37:34.056Z,345
2017-05-01T12:38:44.951Z,345
2017-05-01T12:39:56.181Z,355
2017-05-01T12:41:07.027Z,385
2017-05-01T12:42:17.839Z,425
2017-05-01T12:43:28.680Z,430
2017-05-01T12:44:39.520Z,480
2017-05-01T12:45:50.621Z,600
2017-05-01T12:47:01.455Z,1395
2017-05-01T12:48:12.348Z,715
2017-05-01T12:49:23.310Z,695
2017-05-01T12:50:34.164Z,635
2017-05-01T12:51:45.424Z,610
2017-05-01T12:52:56.217Z,610
2017-05-01T12:54:06.759Z,690
2017-05-01T12:55:17.249Z,765
2017-05-01T12:56:28.098Z,710
2017-05-01T12:57:39.257Z,625
2017-05-01T12:58:50.101Z,590
2017-05-01T13:00:00.909Z,600
2017-05-01T13:01:36.386Z,695
2017-05-01T13:03:14.387Z,860
2017-05-01T13:04:50.522Z,1065
2017-05-01T13:06:27.514Z,1160
2017-05-01T13:08:04.544Z,1100
2017-05-01T13:09:39.266Z,1155
2017-05-01T13:11:13.234Z,855
2017-05-01T13:12:49.274Z,820
2017-05-01T13:14:22.977Z,835
2017-05-01T13:15:56.961Z,785
2017-05-01T13:17:31.898Z,740
2017-05-01T13:19:10.201Z,740
2017-05-01T13:20:47.084Z,805
2017-05-01T13:22:22.317Z,740
2017-05-01T13:23:42.720Z,725
2017-05-01T13:24:58.289Z,740
2017-05-01T13:26:15.006Z,770
2017-05-01T13:27:30.991Z,850
2017-05-01T13:28:47.408Z,960
2017-05-01T13:30:04.084Z,1020
2017-05-01T13:31:20.269Z,1050
2017-05-01T13:32:42.095Z,925
2017-05-01T13:33:57.726Z,880
2017-05-01T13:35:14.171Z,895
2017-05-01T13:36:30.316Z,1000
2017-05-01T13:37:46.402Z,1230
2017-05-01T13:39:01.624Z,3215
2017-05-01T13:40:18.326Z,3105
2017-05-01T13:41:34.207Z,2155
2017-05-01T13:42:45.555Z,990
2017-05-01T13:43:56.473Z,1020
2017-05-01T13:45:07.699Z,1145
2017-05-01T13:46:18.551Z,1245
2017-05-01T13:47:29.596Z,1100
2017-05-01T13:48:40.487Z,1035
2017-05-01T13:49:51.315Z,905
2017-05-01T13:51:04.405Z,730
2017-05-01T13:52:14.911Z,790
2017-05-01T13:53:26.030Z,945
2017-05-01T13:54:37.911Z,1150
2017-05-01T13:55:49.216Z,980
2017-05-01T13:57:00.820Z,795
2017-05-01T13:58:13.375Z,745
2017-05-01T13:59:24.442Z,770
2017-05-01T14:00:35.349Z,800
2017-05-01T14:02:03.368Z,740
2017-05-01T14:03:34.582Z,690
2017-05-01T14:04:51.290Z,615
2017-05-01T14:06:10.779Z,500
2017-05-01T14:07:29.206Z,425
2017-05-01T14:08:48.614Z,425
2017-05-01T14:10:03.258Z,480
2017-05-01T14:11:32.250Z,490
2017-05-01T14:12:47.054Z,450
2017-05-01T14:14:04.165Z,425
2017-05-01T14:15:36.264Z,430
2017-05-01T14:17:07.390Z,425
2017-05-01T14:18:19.527Z,460
2017-05-01T14:19:30.407Z,405
2017-05-01T14:20:40.925Z,350
2017-05-01T14:21:51.765Z,310
2017-05-01T14:23:02.657Z,260
2017-05-01T14:24:13.947Z,245
2017-05-01T14:25:24.366Z,255
2017-05-01T14:26:35.242Z,250
2017-05-01T14:27:46.333Z,235
2017-05-01T14:28:57.186Z,225
2017-05-01T14:30:08.073Z,245
2017-05-01T14:31:18.912Z,275
2017-05-01T14:32:29.849Z,300
2017-05-01T14:33:40.717Z,325
2017-05-01T14:34:51.207Z,345
2017-05-01T14:36:11.847Z,380
2017-05-01T14:37:31.157Z,420
2017-05-01T14:38:48.965Z,450
2017-05-01T14:40:13.642Z,440
2017-05-01T14:41:35.357Z,435
2017-05-01T14:43:11.490Z,440
2017-05-01T14:44:41.298Z,440
2017-05-01T14:46:12.440Z,470
2017-05-01T14:47:49.565Z,495
2017-05-01T14:49:22.968Z,470
2017-05-01T14:50:45.880Z,435
2017-05-01T14:52:11.865Z,430
2017-05-01T14:53:24.024Z,425
2017-05-01T14:54:34.528Z,430
2017-05-01T14:55:45.470Z,440
2017-05-01T14:56:56.292Z,470
2017-05-01T14:58:07.103Z,480
2017-05-01T14:59:18.551Z,460
2017-05-01T15:00:29.513Z,490
2017-05-01T15:01:40.129Z,510
2017-05-01T15:02:50.946Z,510
2017-05-01T15:04:01.796Z,495
2017-05-01T15:05:12.483Z,480
2017-05-01T15:06:23.290Z,455
2017-05-01T15:07:34.134Z,460
2017-05-01T15:08:45.035Z,470
2017-05-01T15:09:56.006Z,430
2017-05-01T15:11:06.800Z,395
2017-05-01T15:12:17.690Z,375
2017-05-01T15:13:28.287Z,385
2017-05-01T15:14:39.196Z,420
2017-05-01T15:15:50.045Z,435
2017-05-01T15:17:01.244Z,445
2017-05-01T15:18:12.092Z,465
2017-05-01T15:19:22.924Z,490
2017-05-01T15:20:33.778Z,500
2017-05-01T15:21:44.599Z,490
2017-05-01T15:22:55.714Z,435
2017-05-01T15:24:06.532Z,375
2017-05-01T15:25:17.154Z,325
2017-05-01T15:26:28.102Z,295
2017-05-01T15:27:38.933Z,285
2017-05-01T15:28:49.726Z,275
2017-05-01T15:30:00.564Z,270
2017-05-01T15:31:11.403Z,275
2017-05-01T15:32:22.217Z,285
2017-05-01T15:33:33.038Z,320
2017-05-01T15:34:44.211Z,350
2017-05-01T15:35:55.026Z,385
2017-05-01T15:37:05.940Z,420
2017-05-01T15:38:16.846Z,440
2017-05-01T15:39:27.849Z,445
2017-05-01T15:40:38.966Z,440
2017-05-01T15:41:49.790Z,435
2017-05-01T15:43:00.777Z,400
2017-05-01T15:44:11.671Z,380
2017-05-01T15:45:22.590Z,360
2017-05-01T15:46:33.758Z,335
2017-05-01T15:47:44.572Z,335
2017-05-01T15:48:55.435Z,340
2017-05-01T15:50:06.286Z,325
2017-05-01T15:51:17.095Z,325
2017-05-01T15:52:28.339Z,320
2017-05-01T15:53:39.208Z,320
2017-05-01T15:54:50.042Z,320
2017-05-01T15:56:00.887Z,330
2017-05-01T15:57:11.764Z,345
2017-05-01T15:58:23.023Z,360
2017-05-01T15:59:33.842Z,365
2017-05-01T16:00:44.660Z,355
2017-05-01T16:01:55.483Z,350
2017-05-01T16:03:06.323Z,350
2017-05-01T16:04:17.522Z,335
2017-05-01T16:05:28.392Z,310
2017-05-01T16:06:39.189Z,295
2017-05-01T16:07:50.002Z,290
2017-05-01T16:09:00.392Z,285
2017-05-01T16:10:11.504Z,275
2017-05-01T16:11:22.346Z,270
2017-05-01T16:12:33.300Z,260
2017-05-01T16:13:43.866Z,255
2017-05-01T16:14:54.689Z,250
2017-05-01T16:16:05.795Z,245
2017-05-01T16:17:16.286Z,240
2017-05-01T16:18:27.458Z,230
2017-05-01T16:19:38.311Z,225
2017-05-01T16:20:49.142Z,220
2017-05-01T16:22:00.484Z,215
2017-05-01T16:23:11.433Z,215
2017-05-01T16:24:22.346Z,215
2017-05-01T16:25:33.152Z,210
2017-05-01T16:26:43.961Z,205
2017-05-01T16:27:55.077Z,200
2017-05-01T16:29:05.947Z,195
2017-05-01T16:30:16.835Z,190
2017-05-01T16:31:27.762Z,190
2017-05-01T16:32:38.620Z,190
2017-05-01T16:33:49.734Z,195